Ridgewood, NJ (07450)

10:52 AM EDT on September 04, 2015 (GMT -0400)
Hope Street | | Change Station
CLOSE
Current Station
Personal Weather Station
Location: Ridgewood, NJ
Elevation: 120 ft
Nearby Weather Stations

Elev 120 ft 40.98 °N, 74.11 °W | Updated 2 minutes ago

Mostly Cloudy
Mostly Cloudy
82.9 °F
Feels Like 88 °F
N
2.2
Wind Variable Wind from ESE

Today
High -- | Low -- °F
--% Chance of Precip.
Yesterday
High -- | Low -- °F
Precip. -- in
6:25 AM 7:24 PM
Waning Gibbous, 59% visible
Pressure 30.06 in
Visibility 10.0 miles
Clouds Mostly Cloudy 2300 ft
Overcast 5500 ft
Heat Index 88 °F
Dew Point 71 °F
Humidity 68%
Rainfall 0.00 in
Snow Depth Not available.
UV 2 out of 12
Pollen 9.00 out of 12
Air Quality Not available.
Flu Activity Not available.
SPECI KTEB 041437Z 06012G19KT 10SM BKN023 OVC055 27/18 A3006 RMK AO2
Pressure 30.06 in
Visibility 10.0 miles
Clouds Mostly Cloudy 2300 ft
Overcast 5500 ft
Heat Index 88 °F
Dew Point 71 °F
Humidity 68%
Rainfall 0.00 in
Snow Depth Not available.
UV 2 out of 12
Pollen 9.00 out of 12
Air Quality Not available.
Flu Activity Not available.
SPECI KTEB 041437Z 06012G19KT 10SM BKN023 OVC055 27/18 A3006 RMK AO2

10-Day Weather Forecast

×

Almanac

Astronomy

Sep. 04, 2015 Rise Set
Actual Time
Civil Twilight
Nautical Twilight
Astronomical Twilight
Moon
Length of Visible Light
Length of Day
Tomorrow will be .
, % of the Moon is Illuminated

Today's Extremes

State Highs State Lows

Community

WunderPhotos

Upload Photos

1,852,187 photos uploaded!

WunderBlogs® & News

Nearby

Air Quality

  Air Quality AQ Index Pollutant
Not available.

Snow Depth

Station Depth Elevation

Earthquake Activity

City Distance Mag. Time & Date
Minimum magnitude displayed is 2.5.

Coastal Water Temperatures

Place Temperature

Stations

Nearby Weather Stations

Station Location Temp. Windchill Dew Point Humidity Wind Precip. Elev Updated Type